Time;durP1;ratioP1;P1;durP2;ratioP2;P2;SDS_P1;SDS_P2;PMS_P1;PMS_P2;Temp;Humidity;BMP_temperature;BMP_pressure;BME280_temperature;BME280_humidity;BME280_pressure;Samples;Min_cycle;Max_cycle;Signal;HPM_P1;HPM_P2
2023/08/07 00:00:12;;;;;;;6.43;2.17;;;;;;;13.71;91.49;101492.53;6101019;19;20002;-71
2023/08/07 00:02:19;;;;;;;9.30;2.70;;;;;;;13.74;89.89;101486.28;6102830;19;20014;-71
2023/08/07 00:04:25;;;;;;;13.80;2.50;;;;;;;13.73;89.90;101484.56;6099564;19;20018;-71
2023/08/07 00:06:30;;;;;;;6.85;2.65;;;;;;;13.82;89.67;101486.78;6100045;19;20007;-71
2023/08/07 00:08:37;;;;;;;8.70;2.45;;;;;;;13.74;90.70;101502.97;6101380;19;20010;-71
2023/08/07 00:10:43;;;;;;;6.57;2.47;;;;;;;13.54;94.26;101514.41;6099050;19;20007;-71
2023/08/07 00:12:48;;;;;;;5.00;2.00;;;;;;;13.10;97.38;101530.25;6100772;19;20039;-71
2023/08/07 00:14:53;;;;;;;6.47;2.50;;;;;;;12.83;100.00;101529.56;6097319;19;20019;-71
2023/08/07 00:16:59;;;;;;;6.18;2.28;;;;;;;12.73;99.76;101526.41;6092618;19;20475;-73
2023/08/07 00:19:06;;;;;;;7.65;1.90;;;;;;;12.62;99.46;101515.44;6102463;19;20446;-71
2023/08/07 00:21:12;;;;;;;9.38;2.13;;;;;;;12.56;99.03;101515.66;6098418;19;20011;-72
2023/08/07 00:23:17;;;;;;;5.35;1.92;;;;;;;12.58;98.12;101505.91;6089922;19;20845;-72
2023/08/07 00:25:22;;;;;;;6.10;2.20;;;;;;;12.58;97.87;101503.25;6096266;19;20011;-72
2023/08/07 00:27:28;;;;;;;4.50;1.77;;;;;;;12.57;99.92;101513.88;6099477;19;20022;-71
2023/08/07 00:29:33;;;;;;;9.95;2.42;;;;;;;12.64;98.94;101507.47;6100096;19;20042;-72
2023/08/07 00:31:38;;;;;;;7.78;2.83;;;;;;;12.70;99.53;101502.81;6097298;19;20014;-72
2023/08/07 00:33:43;;;;;;;8.15;2.25;;;;;;;12.72;100.00;101506.25;6086621;19;20035;-72
2023/08/07 00:35:51;;;;;;;7.47;2.33;;;;;;;12.77;100.00;101503.44;6095588;19;20010;-72
2023/08/07 00:37:56;;;;;;;10.07;2.53;;;;;;;12.84;100.00;101498.75;6100367;19;20010;-73
2023/08/07 00:40:01;;;;;;;8.30;2.20;;;;;;;12.96;100.00;101507.06;6094365;19;20003;-74
2023/08/07 00:42:09;;;;;;;9.25;2.50;;;;;;;13.03;100.00;101520.84;6098499;19;20011;-71
2023/08/07 00:44:14;;;;;;;8.50;2.47;;;;;;;13.18;98.08;101522.03;6087188;19;20006;-71
2023/08/07 00:46:19;;;;;;;7.80;2.55;;;;;;;13.20;98.66;101514.06;6086860;19;20007;-71
2023/08/07 00:48:22;;;;;;;7.00;2.60;;;;;;;13.20;98.71;101514.06;6086666;19;20010;-71
2023/08/07 00:50:28;;;;;;;11.77;3.03;;;;;;;13.17;98.60;101507.97;6092268;19;20006;-71
2023/08/07 00:52:53;;;;;;;;;;;;;;;13.16;98.10;101516.81;6091673;19;20006;-71
2023/08/07 00:54:58;;;;;;;12.85;3.25;;;;;;;13.20;97.74;101507.00;6078023;19;19915;-71
2023/08/07 00:57:12;;;;;;;6.22;2.40;;;;;;;13.23;96.95;101506.88;6093355;19;20031;-71
2023/08/07 00:59:17;;;;;;;11.15;2.17;;;;;;;13.32;94.54;101500.38;6095664;19;20022;-71
2023/08/07 01:01:20;;;;;;;10.05;2.42;;;;;;;13.32;95.11;101510.94;6088635;19;20385;-71
2023/08/07 01:03:26;;;;;;;;;;;;;;;13.48;93.23;101513.78;6085328;19;20003;-71
2023/08/07 01:05:31;;;;;;;8.52;2.53;;;;;;;13.55;93.12;101516.13;6097987;19;20504;-73
2023/08/07 01:07:36;;;;;;;12.20;2.83;;;;;;;13.43;95.15;101513.13;6085998;19;20011;-72
2023/08/07 01:09:48;;;;;;;5.38;2.40;;;;;;;13.49;92.06;101508.47;6097730;19;20010;-76
2023/08/07 01:11:59;;;;;;;8.40;2.83;;;;;;;13.51;91.96;101508.41;6101209;19;20078;-74
2023/08/07 01:14:17;;;;;;;10.35;2.53;;;;;;;13.50;91.12;101510.16;6098648;19;20014;-73
2023/08/07 01:16:29;;;;;;;9.05;2.72;;;;;;;13.56;90.68;101519.59;6086255;19;20067;-73
2023/08/07 01:18:34;;;;;;;9.00;2.47;;;;;;;13.61;89.15;101522.91;6101850;19;20273;-73
2023/08/07 01:20:39;;;;;;;7.55;2.53;;;;;;;13.59;90.00;101520.34;6094840;19;20743;-74
2023/08/07 01:22:47;;;;;;;14.45;4.13;;;;;;;13.55;91.03;101518.75;6093954;19;20003;-73
2023/08/07 01:24:53;;;;;;;4.95;2.03;;;;;;;13.71;87.11;101520.75;6086127;19;20512;-73
2023/08/07 01:27:01;;;;;;;9.25;2.45;;;;;;;13.80;86.14;101517.72;6085524;19;20053;-72
2023/08/07 01:29:14;;;;;;;14.82;2.70;;;;;;;13.78;86.91;101527.50;6085681;19;20082;-71
2023/08/07 01:31:23;;;;;;;6.82;2.05;;;;;;;13.88;85.13;101512.97;6086497;19;20134;-74
2023/08/07 01:33:35;;;;;;;12.05;3.03;;;;;;;13.84;86.13;101514.00;6094440;19;20007;-75
2023/08/07 01:35:45;;;;;;;6.97;2.47;;;;;;;13.76;87.73;101518.78;6086570;19;20007;-74
2023/08/07 01:37:59;;;;;;;10.75;3.17;;;;;;;13.77;87.68;101510.78;6088789;19;20003;-74
2023/08/07 01:40:06;;;;;;;14.15;3.00;;;;;;;13.78;87.24;101516.94;6100618;19;20098;-74
2023/08/07 01:42:14;;;;;;;7.13;2.47;;;;;;;13.77;87.80;101516.06;6096936;19;20007;-74
2023/08/07 01:44:22;;;;;;;11.63;2.35;;;;;;;13.80;87.45;101518.59;6090643;19;20714;-74
2023/08/07 01:46:27;;;;;;;10.13;2.60;;;;;;;13.72;89.11;101530.41;6096325;19;20007;-73
2023/08/07 01:48:30;;;;;;;9.00;2.55;;;;;;;13.83;86.30;101521.09;6097407;19;20011;-72
2023/08/07 01:50:35;;;;;;;5.45;2.60;;;;;;;13.80;86.67;101523.88;6087980;19;20015;-72
2023/08/07 01:52:38;;;;;;;13.00;3.20;;;;;;;13.78;86.63;101524.84;6095617;19;20006;-72
2023/08/07 01:54:46;;;;;;;8.32;2.40;;;;;;;13.79;86.02;101526.56;6099805;19;20006;-72
2023/08/07 01:56:51;;;;;;;8.20;2.58;;;;;;;13.84;84.92;101528.06;6089438;19;20010;-71
2023/08/07 01:58:56;;;;;;;9.77;2.42;;;;;;;13.78;85.87;101535.41;6099461;19;20006;-70
2023/08/07 02:01:04;;;;;;;9.00;2.45;;;;;;;13.70;86.76;101527.81;6095258;19;20650;-70
2023/08/07 02:03:06;;;;;;;9.02;2.30;;;;;;;13.67;87.96;101527.97;6094322;19;20615;-71
2023/08/07 02:05:12;;;;;;;7.75;2.60;;;;;;;13.76;86.36;101532.84;6095720;19;20018;-71
2023/08/07 02:07:17;;;;;;;7.82;3.30;;;;;;;13.72;87.31;101527.78;6089043;19;21011;-71
2023/08/07 02:09:22;;;;;;;5.10;2.28;;;;;;;13.69;87.67;101528.75;6095981;19;20017;-71
2023/08/07 02:11:29;;;;;;;6.05;2.22;;;;;;;13.71;86.67;101523.38;6097612;19;20337;-72
2023/08/07 02:13:34;;;;;;;9.30;2.85;;;;;;;13.67;88.32;101530.59;6093999;19;20010;-73
2023/08/07 02:15:39;;;;;;;9.55;2.38;;;;;;;13.75;85.56;101525.84;6097363;19;20047;-72
2023/08/07 02:17:47;;;;;;;10.05;3.03;;;;;;;13.76;86.23;101529.34;6100398;19;20002;-72
2023/08/07 02:19:50;;;;;;;3.80;2.03;;;;;;;13.84;84.33;101535.16;6095396;19;20011;-70
2023/08/07 02:21:55;;;;;;;10.73;2.63;;;;;;;13.87;83.95;101532.38;6098664;19;20010;-73
2023/08/07 02:24:00;;;;;;;9.30;2.53;;;;;;;13.86;84.16;101537.75;6097031;19;20494;-74
2023/08/07 02:26:05;;;;;;;8.43;2.35;;;;;;;13.83;84.14;101534.28;6097784;19;20447;-72
2023/08/07 02:28:13;;;;;;;7.03;2.80;;;;;;;13.80;85.29;101536.22;6093553;19;20620;-71
2023/08/07 02:30:16;;;;;;;6.20;2.50;;;;;;;13.84;85.25;101532.50;6096206;19;20511;-71
2023/08/07 02:32:20;;;;;;;7.28;2.42;;;;;;;13.86;84.62;101533.31;6098862;19;20035;-72
2023/08/07 02:34:26;;;;;;;8.25;2.33;;;;;;;13.82;85.20;101535.22;6097428;19;20020;-72
2023/08/07 02:36:31;;;;;;;10.05;2.08;;;;;;;13.99;84.23;101523.91;6085769;19;20014;-71
2023/08/07 02:38:36;;;;;;;8.68;2.10;;;;;;;13.89;85.59;101529.69;6088496;19;20022;-72
2023/08/07 02:40:41;;;;;;;6.88;2.22;;;;;;;13.82;87.03;101534.34;6084644;19;20112;-72
2023/08/07 02:42:47;;;;;;;8.35;2.92;;;;;;;13.80;87.55;101538.88;6098655;19;20086;-70
2023/08/07 02:44:55;;;;;;;9.68;2.47;;;;;;;13.83;87.00;101538.72;6087795;19;20003;-72
2023/08/07 02:47:00;;;;;;;7.45;2.72;;;;;;;13.77;87.97;101529.28;6094741;19;20010;-69
2023/08/07 02:49:05;;;;;;;8.15;2.25;;;;;;;13.71;89.05;101539.25;6088337;19;20049;-70
2023/08/07 02:51:10;;;;;;;6.40;2.15;;;;;;;13.71;89.10;101536.59;6093723;19;20007;-70
2023/08/07 02:53:15;;;;;;;8.65;2.55;;;;;;;13.59;91.22;101549.41;6098527;19;20003;-71
2023/08/07 02:55:20;;;;;;;9.75;2.38;;;;;;;13.25;96.46;101554.31;6097904;19;20011;-71
2023/08/07 02:57:25;;;;;;;5.78;1.77;;;;;;;13.04;98.80;101548.13;6094267;19;20023;-73
2023/08/07 02:59:30;;;;;;;7.95;1.83;;;;;;;12.96;100.00;101548.41;6098922;19;20490;-73
2023/08/07 03:01:38;;;;;;;4.22;1.73;;;;;;;12.94;100.00;101552.88;6095996;19;20021;-73
2023/08/07 03:03:43;;;;;;;5.47;1.83;;;;;;;12.89;100.00;101546.94;6090691;19;20082;-74
2023/08/07 03:05:52;;;;;;;8.10;2.05;;;;;;;12.92;100.00;101544.16;6099986;19;20368;-74
2023/08/07 03:07:57;;;;;;;4.45;2.03;;;;;;;12.90;100.00;101538.97;6089811;19;20003;-74
2023/08/07 03:10:04;;;;;;;10.73;2.45;;;;;;;12.92;100.00;101544.16;6096643;19;20098;-73
2023/08/07 03:12:10;;;;;;;7.18;2.35;;;;;;;12.96;100.00;101553.69;6097178;19;20006;-74
2023/08/07 03:14:15;;;;;;;7.78;2.83;;;;;;;12.98;100.00;101538.66;6101763;19;20006;-74
2023/08/07 03:16:21;;;;;;;6.88;2.53;;;;;;;13.00;100.00;101550.00;6099015;19;20035;-73
2023/08/07 03:18:29;;;;;;;9.38;2.28;;;;;;;12.98;100.00;101549.22;6099560;19;20003;-73
2023/08/07 03:20:34;;;;;;;4.43;1.92;;;;;;;12.98;100.00;101543.06;6095661;19;20014;-74
2023/08/07 03:22:39;;;;;;;8.18;2.53;;;;;;;12.97;100.00;101536.94;6102228;19;20274;-74
2023/08/07 03:24:50;;;;;;;8.32;2.22;;;;;;;12.99;100.00;101550.06;6100805;19;20011;-74
2023/08/07 03:26:55;;;;;;;5.78;1.73;;;;;;;13.01;99.29;101548.25;6101248;19;20007;-74
2023/08/07 03:29:01;;;;;;;7.97;2.45;;;;;;;13.05;99.70;101550.69;6097350;19;20713;-73
2023/08/07 03:31:09;;;;;;;5.85;1.63;;;;;;;13.01;100.00;101553.53;6093934;19;20374;-74
2023/08/07 03:33:14;;;;;;;10.48;2.28;;;;;;;13.02;100.00;101550.81;6099428;19;20054;-74
2023/08/07 03:35:21;;;;;;;7.45;1.83;;;;;;;13.00;100.00;101551.78;6093367;19;20066;-74
2023/08/07 03:37:27;;;;;;;5.00;2.33;;;;;;;13.08;100.00;101545.28;6089789;19;20016;-74
2023/08/07 03:39:32;;;;;;;9.98;2.60;;;;;;;13.06;100.00;101554.16;6101406;19;20090;-74
2023/08/07 03:41:37;;;;;;;8.68;2.05;;;;;;;13.09;100.00;101543.53;6088628;19;20351;-74
2023/08/07 03:43:40;;;;;;;4.72;2.28;;;;;;;13.02;100.00;101544.69;6099859;19;20487;-74
2023/08/07 03:45:46;;;;;;;8.65;2.47;;;;;;;13.01;99.39;101541.19;6103156;19;20343;-74
2023/08/07 03:47:49;;;;;;;4.28;2.38;;;;;;;12.99;100.00;101550.94;6101399;19;20385;-74
2023/08/07 03:49:54;;;;;;;7.22;2.05;;;;;;;13.01;99.44;101554.38;6098640;19;20470;-74
2023/08/07 03:52:05;;;;;;;9.80;2.50;;;;;;;13.10;98.32;101543.44;6101729;19;20150;-74
2023/08/07 03:54:09;;;;;;;8.07;2.15;;;;;;;13.10;98.71;101546.06;6099152;19;20021;-74
2023/08/07 03:56:14;;;;;;;6.13;2.13;;;;;;;13.15;98.27;101544.13;6098724;19;20023;-74
2023/08/07 03:58:20;;;;;;;8.20;2.63;;;;;;;13.10;99.73;101542.59;6099583;19;20096;-72
2023/08/07 04:00:22;;;;;;;6.70;1.98;;;;;;;13.12;98.84;101535.47;6099675;19;20010;-72
2023/08/07 04:02:30;;;;;;;6.85;2.03;;;;;;;13.22;98.17;101535.94;6101547;19;20066;-72
2023/08/07 04:04:35;;;;;;;6.07;2.08;;;;;;;13.26;97.89;101540.19;6098970;19;20052;-73
2023/08/07 04:06:40;;;;;;;9.82;2.42;;;;;;;13.31;96.98;101538.25;6101147;19;20018;-72
2023/08/07 04:08:48;;;;;;;5.38;2.38;;;;;;;13.34;96.75;101532.84;6098161;19;20067;-72
2023/08/07 04:11:03;;;;;;;9.93;2.47;;;;;;;13.42;96.41;101540.47;6101307;19;20063;-72
2023/08/07 04:13:08;;;;;;;12.45;2.78;;;;;;;13.46;95.47;101540.28;6092467;19;20766;-73
2023/08/07 04:15:13;;;;;;;8.70;2.80;;;;;;;13.50;94.95;101539.22;6096175;19;20007;-72
2023/08/07 04:17:18;;;;;;;11.10;2.90;;;;;;;13.56;93.76;101524.88;6094243;19;20026;-71
2023/08/07 04:19:23;;;;;;;5.63;2.22;;;;;;;13.63;92.90;101538.72;6098909;19;20015;-71
2023/08/07 04:21:29;;;;;;;10.77;2.88;;;;;;;13.60;93.51;101540.53;6098280;19;20057;-72
2023/08/07 04:23:32;;;;;;;8.88;2.45;;;;;;;13.74;90.72;101534.66;6098542;19;20117;-72
2023/08/07 04:25:40;;;;;;;6.45;2.38;;;;;;;13.80;89.33;101545.00;6100691;19;20027;-72
2023/08/07 04:27:48;;;;;;;9.30;3.38;;;;;;;13.79;89.52;101543.25;6098390;19;21752;-72
2023/08/07 04:29:51;;;;;;;9.02;3.03;;;;;;;13.82;87.94;101551.09;6095916;19;20024;-71
2023/08/07 04:31:59;;;;;;;9.07;2.33;;;;;;;13.84;87.67;101545.72;6093696;19;20010;-71
2023/08/07 04:34:04;;;;;;;4.10;1.90;;;;;;;13.87;86.91;101558.78;6097446;19;20016;-73
2023/08/07 04:36:09;;;;;;;9.00;1.92;;;;;;;13.88;86.27;101546.47;6098571;19;20069;-71
2023/08/07 04:38:14;;;;;;;6.95;2.17;;;;;;;13.87;85.97;101550.88;6098445;19;20006;-71
2023/08/07 04:40:19;;;;;;;5.45;2.15;;;;;;;13.88;85.71;101559.66;6092611;19;20076;-70
2023/08/07 04:42:27;;;;;;;11.07;2.38;;;;;;;13.82;86.60;101563.41;6101358;19;20023;-70
2023/08/07 04:44:35;;;;;;;4.07;1.90;;;;;;;13.81;87.71;101562.56;6099608;19;20058;-71
2023/08/07 04:46:39;;;;;;;7.53;2.10;;;;;;;13.74;87.85;101563.72;6093790;19;20007;-72
2023/08/07 04:48:44;;;;;;;9.65;2.75;;;;;;;13.75;88.02;101567.25;6099929;19;20007;-70
2023/08/07 04:50:49;;;;;;;4.57;1.90;;;;;;;13.72;88.60;101572.69;6099049;19;20027;-70
2023/08/07 04:52:54;;;;;;;10.40;2.40;;;;;;;13.72;87.74;101565.59;6096423;19;20010;-70
2023/08/07 04:54:59;;;;;;;11.15;2.63;;;;;;;13.78;86.62;101572.41;6088259;19;20002;-71
2023/08/07 04:57:05;;;;;;;7.38;2.40;;;;;;;13.78;86.52;101578.53;6100600;19;20010;-73
2023/08/07 04:59:13;;;;;;;7.75;2.33;;;;;;;13.82;85.50;101566.06;6100190;19;20034;-75
2023/08/07 05:01:18;;;;;;;5.75;2.72;;;;;;;13.77;86.52;101568.03;6097108;19;20029;-75
2023/08/07 05:03:26;;;;;;;6.25;2.00;;;;;;;13.79;85.31;101574.97;6095622;19;20493;-73
2023/08/07 05:05:33;;;;;;;5.38;2.45;;;;;;;13.82;85.17;101568.69;6098837;19;20218;-75
2023/08/07 05:07:38;;;;;;;6.07;2.13;;;;;;;13.79;84.99;101574.09;6097379;19;20043;-74
2023/08/07 05:09:43;;;;;;;6.82;2.90;;;;;;;13.77;84.51;101571.56;6097282;19;20438;-73
2023/08/07 05:11:46;;;;;;;10.48;2.47;;;;;;;13.78;85.21;101569.75;6099787;19;20462;-74
2023/08/07 05:13:52;;;;;;;7.78;1.92;;;;;;;13.74;84.56;101579.56;6095615;19;20139;-74
2023/08/07 05:16:00;;;;;;;7.63;2.42;;;;;;;13.75;85.10;101583.97;6096429;19;20434;-75
2023/08/07 05:18:08;;;;;;;5.93;2.15;;;;;;;13.81;84.33;101585.47;6095900;19;20543;-73
2023/08/07 05:20:13;;;;;;;9.27;2.38;;;;;;;13.78;84.34;101581.19;6089606;19;20604;-75
2023/08/07 05:22:18;;;;;;;6.93;2.25;;;;;;;13.81;84.74;101582.84;6094837;19;20002;-75
2023/08/07 05:24:24;;;;;;;11.20;2.13;;;;;;;13.92;82.96;101585.88;6099748;19;20007;-74
2023/08/07 05:26:29;;;;;;;8.60;2.00;;;;;;;13.93;82.43;101584.97;6094591;19;20098;-75
2023/08/07 05:28:34;;;;;;;5.03;2.05;;;;;;;13.94;83.41;101584.03;6096096;19;20006;-75
2023/08/07 05:30:39;;;;;;;5.03;1.98;;;;;;;13.97;83.14;101588.31;6098373;19;20014;-75
2023/08/07 05:32:47;;;;;;;7.05;2.20;;;;;;;13.95;84.09;101584.88;6094534;19;20011;-77
2023/08/07 05:34:53;;;;;;;10.35;3.15;;;;;;;14.05;82.81;101587.06;6096264;19;20873;-75
2023/08/07 05:36:59;;;;;;;10.45;2.17;;;;;;;14.03;83.61;101588.94;6097443;19;20077;-73
2023/08/07 05:39:08;;;;;;;6.82;2.28;;;;;;;14.04;83.61;101582.72;6098078;19;20725;-76
2023/08/07 05:41:13;;;;;;;7.32;2.42;;;;;;;14.02;84.28;101591.63;6098030;19;20007;-75
2023/08/07 05:43:20;;;;;;;3.65;2.00;;;;;;;14.03;84.53;101594.22;6098260;19;20076;-77
2023/08/07 05:45:27;;;;;;;5.20;1.80;;;;;;;14.09;84.32;101592.25;6097488;19;20109;-76
2023/08/07 05:47:35;;;;;;;8.32;2.35;;;;;;;14.09;85.22;101597.53;6101676;19;20019;-77
2023/08/07 05:49:43;;;;;;;7.05;2.30;;;;;;;14.11;85.18;101600.94;6098308;19;20015;-77
2023/08/07 05:51:48;;;;;;;9.00;2.53;;;;;;;14.13;85.54;101599.09;6099313;19;19999;-77
2023/08/07 05:53:53;;;;;;;13.18;3.10;;;;;;;14.19;84.49;101598.81;6091353;19;20368;-77
2023/08/07 05:56:02;;;;;;;12.00;2.58;;;;;;;14.21;85.03;101611.06;6097884;19;20215;-77
2023/08/07 05:58:07;;;;;;;5.03;2.22;;;;;;;14.27;85.05;101615.25;6099284;19;20093;-72
2023/08/07 06:00:15;;;;;;;10.93;2.90;;;;;;;14.26;85.06;101606.41;6095901;19;20855;-72
2023/08/07 06:02:20;;;;;;;8.52;2.65;;;;;;;14.34;85.02;101611.38;6096260;19;20014;-72
2023/08/07 06:04:25;;;;;;;5.53;2.45;;;;;;;14.42;84.60;101611.03;6092944;19;20435;-71
2023/08/07 06:06:35;;;;;;;13.63;3.05;;;;;;;14.61;83.73;101616.41;6096721;19;20336;-70
2023/08/07 06:08:41;;;;;;;5.55;2.45;;;;;;;14.78;82.42;101613.00;6092196;19;20577;-71
2023/08/07 06:10:46;;;;;;;7.53;2.40;;;;;;;14.59;82.83;101608.56;6097833;19;20010;-71
2023/08/07 06:12:52;;;;;;;7.07;2.92;;;;;;;14.50;83.26;101614.19;6098536;19;20006;-72
2023/08/07 06:15:00;;;;;;;8.48;2.88;;;;;;;14.40;84.01;101619.06;6096557;19;20518;-71
2023/08/07 06:17:05;;;;;;;9.82;2.15;;;;;;;14.37;83.78;101616.53;6095410;19;20010;-72
2023/08/07 06:19:11;;;;;;;3.88;2.10;;;;;;;14.38;83.63;101631.47;6094400;19;20523;-72
2023/08/07 06:21:35;;;;;;;6.15;2.47;;;;;;;14.52;82.27;101633.50;6097019;19;20022;-72
2023/08/07 06:23:42;;;;;;;8.85;3.15;;;;;;;14.40;82.82;101632.28;6098813;19;20018;-71
2023/08/07 06:25:52;;;;;;;7.55;2.35;;;;;;;14.45;81.66;101638.19;6092031;19;20026;-72
2023/08/07 06:28:05;;;;;;;6.05;2.20;;;;;;;14.47;82.15;101630.22;6098713;19;20010;-70
2023/08/07 06:30:13;;;;;;;6.45;1.83;;;;;;;15.02;79.27;101622.44;6094860;19;20486;-70
2023/08/07 06:32:18;;;;;;;7.93;2.33;;;;;;;15.15;78.21;101618.28;6089098;19;20336;-70
2023/08/07 06:34:23;;;;;;;9.85;2.15;;;;;;;15.11;77.53;101634.38;6097101;19;20006;-73
2023/08/07 06:36:35;;;;;;;9.02;3.05;;;;;;;15.08;75.35;101638.03;6098746;19;20318;-73
2023/08/07 06:38:41;;;;;;;9.07;2.58;;;;;;;15.49;75.84;101640.53;6105881;19;20039;-73
2023/08/07 06:40:50;;;;;;;7.45;2.00;;;;;;;15.80;74.80;101639.91;6100554;19;20106;-72
2023/08/07 06:42:55;;;;;;;4.88;2.10;;;;;;;15.84;73.57;101642.41;6104351;19;20570;-72
2023/08/07 06:45:01;;;;;;;9.90;2.38;;;;;;;15.98;73.89;101642.56;6103407;19;20039;-72
2023/08/07 06:47:09;;;;;;;5.15;2.33;;;;;;;16.12;72.55;101648.03;6105414;19;20022;-72
2023/08/07 06:49:14;;;;;;;6.72;2.50;;;;;;;16.09;73.33;101647.31;6105023;19;20038;-72
2023/08/07 06:51:19;;;;;;;5.50;2.28;;;;;;;16.23;71.65;101643.03;6105415;19;20499;-71
2023/08/07 06:53:27;;;;;;;6.45;2.42;;;;;;;16.11;71.67;101646.31;6098828;19;20027;-71
2023/08/07 06:55:32;;;;;;;8.07;2.10;;;;;;;16.39;71.41;101655.53;6101666;19;20553;-73
2023/08/07 06:57:39;;;;;;;8.48;2.65;;;;;;;16.60;71.28;101656.19;6093396;19;20011;-70
2023/08/07 06:59:47;;;;;;;5.68;2.45;;;;;;;16.46;71.55;101657.78;6101866;19;20020;-73
2023/08/07 07:01:53;;;;;;;5.70;1.85;;;;;;;16.59;70.80;101651.84;6099934;19;20170;-73
2023/08/07 07:03:59;;;;;;;10.35;2.15;;;;;;;16.26;71.57;101659.75;6100372;19;20019;-71
2023/08/07 07:06:04;;;;;;;7.30;2.20;;;;;;;15.71;71.87;101655.41;6102910;19;20034;-72
2023/08/07 07:08:07;;;;;;;6.30;2.30;;;;;;;15.90;72.60;101658.84;6101541;19;20010;-76
2023/08/07 07:10:14;;;;;;;5.57;2.00;;;;;;;16.30;70.31;101661.28;6105607;19;20538;-75
2023/08/07 07:12:23;;;;;;;6.57;2.00;;;;;;;16.61;69.50;101660.56;6104725;19;20010;-75
2023/08/07 07:14:28;;;;;;;7.72;2.40;;;;;;;16.92;67.73;101666.91;6103329;19;20078;-75
2023/08/07 07:16:31;;;;;;;3.83;1.80;;;;;;;16.72;65.58;101673.25;6101845;19;20006;-77
2023/08/07 07:18:36;;;;;;;4.90;2.00;;;;;;;17.00;64.55;101673.53;6099529;19;20023;-77
2023/08/07 07:20:42;;;;;;;5.13;1.88;;;;;;;17.61;63.68;101661.28;6101482;19;20010;-77
2023/08/07 07:22:47;;;;;;;5.75;1.92;;;;;;;17.12;64.70;101661.38;6102761;19;21202;-77
2023/08/07 07:24:52;;;;;;;6.80;2.20;;;;;;;16.89;67.12;101674.09;6099534;19;20364;-76
2023/08/07 07:27:00;;;;;;;3.60;1.88;;;;;;;16.79;63.05;101677.34;6102905;19;20079;-74
2023/08/07 07:29:05;;;;;;;6.55;2.30;;;;;;;17.31;64.34;101672.69;6101540;19;20151;-75
2023/08/07 07:31:11;;;;;;;7.07;2.30;;;;;;;17.27;62.64;101676.50;6097165;19;20010;-75
2023/08/07 07:33:18;;;;;;;5.68;2.30;;;;;;;17.29;63.63;101676.38;6098023;19;20792;-74
2023/08/07 07:35:24;;;;;;;6.97;2.10;;;;;;;17.23;64.95;101680.25;6103646;19;20006;-75
2023/08/07 07:37:29;;;;;;;9.25;2.13;;;;;;;17.31;64.95;101685.13;6103114;19;20079;-75
2023/08/07 07:39:34;;;;;;;7.10;2.03;;;;;;;17.50;63.26;101682.31;6098285;19;20565;-74
2023/08/07 07:41:43;;;;;;;5.85;2.30;;;;;;;17.02;63.33;101684.06;6107551;19;20082;-74
2023/08/07 07:43:51;;;;;;;8.02;2.25;;;;;;;16.34;66.51;101678.75;6103824;19;20050;-77
2023/08/07 07:45:58;;;;;;;9.18;2.03;;;;;;;16.38;64.40;101685.66;6098934;19;20292;-75
2023/08/07 07:48:06;;;;;;;6.20;2.10;;;;;;;16.90;61.82;101693.53;6102173;19;20570;-76
2023/08/07 07:50:13;;;;;;;5.15;1.80;;;;;;;16.98;62.60;101694.00;6101005;19;20042;-75
2023/08/07 07:52:21;;;;;;;6.57;2.38;;;;;;;17.36;60.77;101692.84;6096375;19;20069;-76
2023/08/07 07:54:26;;;;;;;7.38;1.80;;;;;;;17.39;59.76;101693.53;6100735;19;20008;-77
2023/08/07 07:56:31;;;;;;;6.70;1.95;;;;;;;17.40;60.69;101697.91;6104374;19;20023;-75
2023/08/07 07:58:36;;;;;;;5.60;2.00;;;;;;;17.65;59.22;101709.81;6105757;19;20558;-73
2023/08/07 08:00:44;;;;;;;6.82;2.58;;;;;;;17.34;59.79;101707.06;6103697;19;20101;-71
2023/08/07 08:02:49;;;;;;;5.15;1.90;;;;;;;17.75;58.98;101703.06;6104661;19;20066;-72
2023/08/07 08:04:52;;;;;;;8.43;1.90;;;;;;;18.01;57.68;101712.22;6101057;19;20002;-71
2023/08/07 08:06:57;;;;;;;6.68;2.05;;;;;;;18.08;58.42;101712.72;6102866;19;20095;-71
2023/08/07 08:09:08;;;;;;;7.63;2.25;;;;;;;17.87;59.69;101698.84;6104194;19;20520;-71
2023/08/07 08:11:13;;;;;;;5.10;1.92;;;;;;;18.08;60.58;101712.72;6102941;19;19998;-71
2023/08/07 08:13:18;;;;;;;5.10;2.08;;;;;;;18.11;60.86;101720.50;6101304;19;20014;-72
2023/08/07 08:15:24;;;;;;;4.55;1.85;;;;;;;18.46;58.66;101712.25;6099406;19;20692;-72
2023/08/07 08:17:32;;;;;;;4.22;1.80;;;;;;;17.67;58.31;101708.81;6095999;19;20078;-72
2023/08/07 08:19:38;;;;;;;4.85;1.98;;;;;;;18.57;57.82;101717.81;6096639;19;20030;-72
2023/08/07 08:21:54;;;;;;;9.13;2.30;;;;;;;18.60;57.98;101721.13;6099040;19;20518;-71
2023/08/07 08:23:59;;;;;;;5.43;1.58;;;;;;;18.16;57.15;101734.41;6100801;19;20428;-75
2023/08/07 08:26:04;;;;;;;8.20;2.00;;;;;;;18.07;56.63;101729.63;6100234;19;20014;-76
2023/08/07 08:28:10;;;;;;;5.35;1.83;;;;;;;18.35;56.32;101727.06;6097837;19;20519;-77
2023/08/07 08:30:15;;;;;;;6.70;1.65;;;;;;;18.16;55.86;101718.44;6097724;19;20007;-75
2023/08/07 08:32:20;;;;;;;5.97;1.90;;;;;;;18.41;56.59;101739.16;6094269;19;20007;-74
2023/08/07 08:34:28;;;;;;;8.43;2.60;;;;;;;18.02;57.73;101739.69;6100436;19;20006;-75
2023/08/07 08:36:34;;;;;;;6.05;2.05;;;;;;;17.94;56.85;101738.31;6101609;19;20042;-75
2023/08/07 08:38:39;;;;;;;6.32;1.90;;;;;;;17.92;57.23;101761.47;6099463;19;22318;-76
2023/08/07 08:40:44;;;;;;;7.57;2.03;;;;;;;18.38;57.10;101750.84;6097765;19;20017;-77
2023/08/07 08:42:50;;;;;;;5.15;1.70;;;;;;;17.94;56.58;101745.44;6100008;19;20015;-73
2023/08/07 08:44:57;;;;;;;6.60;2.13;;;;;;;18.27;56.50;101750.59;6098483;19;20531;-77
2023/08/07 08:47:02;;;;;;;5.93;1.83;;;;;;;18.33;55.03;101752.91;6096776;19;20632;-71
2023/08/07 08:49:10;;;;;;;7.07;2.00;;;;;;;18.67;56.28;101750.91;6098005;19;20035;-73
2023/08/07 08:51:18;;;;;;;4.90;1.58;;;;;;;18.55;56.30;101752.50;6101567;19;20014;-72
2023/08/07 08:53:24;;;;;;;3.83;1.60;;;;;;;18.23;55.18;101757.06;6099702;19;20031;-73
2023/08/07 08:55:29;;;;;;;4.80;2.10;;;;;;;18.78;56.06;101759.13;6100756;19;20002;-73
2023/08/07 08:57:33;;;;;;;3.78;1.75;;;;;;;19.68;54.51;101755.31;6100516;19;20321;-73
2023/08/07 08:59:38;;;;;;;6.03;1.80;;;;;;;19.89;53.53;101755.75;6101367;19;20040;-71
2023/08/07 09:01:44;;;;;;;4.45;1.80;;;;;;;18.69;54.89;101753.47;6094508;19;20592;-73
2023/08/07 09:03:49;;;;;;;4.32;2.28;;;;;;;18.30;56.92;101769.06;6103147;19;20076;-71
2023/08/07 09:05:56;;;;;;;2.70;1.83;;;;;;;17.64;56.03;101764.78;6105723;19;20021;-74
2023/08/07 09:08:05;;;;;;;5.30;1.75;;;;;;;18.34;56.66;101767.91;6103726;19;20010;-72
2023/08/07 09:10:12;;;;;;;6.57;2.20;;;;;;;18.92;55.52;101768.09;6106075;19;20015;-72
2023/08/07 09:12:22;;;;;;;4.88;2.45;;;;;;;18.69;55.64;101754.31;6103463;19;20023;-72
2023/08/07 09:14:33;;;;;;;5.93;2.17;;;;;;;18.34;56.23;101770.56;6096585;19;20099;-71
2023/08/07 09:16:39;;;;;;;3.30;1.60;;;;;;;18.05;53.87;101768.75;6100741;19;21410;-72
2023/08/07 09:18:45;;;;;;;4.63;1.80;;;;;;;18.66;53.53;101781.13;6099843;19;20046;-72
2023/08/07 09:20:51;;;;;;;5.93;1.88;;;;;;;19.00;53.43;101764.00;6099039;19;20006;-73
2023/08/07 09:22:59;;;;;;;13.73;4.05;;;;;;;18.60;55.45;101776.19;6098686;19;20013;-73
2023/08/07 09:25:09;;;;;;;5.53;2.13;;;;;;;18.76;55.97;101766.34;6100408;19;20014;-73
2023/08/07 09:27:14;;;;;;;3.45;1.70;;;;;;;18.78;54.19;101780.44;6098668;19;19998;-73
2023/08/07 09:29:21;;;;;;;4.50;1.77;;;;;;;18.28;56.07;101776.25;6096228;19;20010;-73
2023/08/07 09:31:30;;;;;;;4.78;1.70;;;;;;;18.38;56.00;101776.59;6094406;19;20493;-74
2023/08/07 09:33:36;;;;;;;6.65;2.55;;;;;;;18.02;56.57;101788.41;6097952;19;20414;-73
2023/08/07 09:35:43;;;;;;;8.65;2.10;;;;;;;18.68;55.00;101781.91;6097784;19;20491;-77
2023/08/07 09:37:48;;;;;;;9.75;2.10;;;;;;;18.67;54.30;101777.53;6099504;19;20014;-77
2023/08/07 09:39:54;;;;;;;4.65;1.90;;;;;;;19.37;54.44;101779.53;6099038;19;20021;-75
2023/08/07 09:42:03;;;;;;;4.40;1.63;;;;;;;19.61;54.89;101780.63;6095443;19;20042;-75
2023/08/07 09:44:10;;;;;;;5.85;2.08;;;;;;;19.12;52.44;101786.38;6101385;19;20024;-78
2023/08/07 09:46:15;;;;;;;4.80;1.80;;;;;;;19.02;51.11;101772.75;6098418;19;20537;-75